sensor_id;sensor_type;location;lat;lon;timestamp;pressure;altitude;pressure_sealevel;temperature;humidity
14882;BME280;7533;51.278;12.588;2023-01-23T00:02:43;101723.69;;;22.86;58.12
14882;BME280;7533;51.278;12.588;2023-01-23T00:07:46;101727.81;;;22.93;58.08
14882;BME280;7533;51.278;12.588;2023-01-23T00:12:49;101726.97;;;22.92;58.11
14882;BME280;7533;51.278;12.588;2023-01-23T00:17:55;101727.41;;;23.01;58.12
14882;BME280;7533;51.278;12.588;2023-01-23T00:22:58;101723.94;;;22.99;58.18
14882;BME280;7533;51.278;12.588;2023-01-23T00:28:01;101733.13;;;23.12;58.09
14882;BME280;7533;51.278;12.588;2023-01-23T00:33:07;101736.88;;;23.09;58.05
14882;BME280;7533;51.278;12.588;2023-01-23T00:38:10;101734.31;;;23.06;58.23
14882;BME280;7533;51.278;12.588;2023-01-23T00:43:13;101734.25;;;23.08;58.11
14882;BME280;7533;51.278;12.588;2023-01-23T00:48:18;101741.22;;;23.12;58.16
14882;BME280;7533;51.278;12.588;2023-01-23T00:53:20;101750.22;;;23.12;58.14
14882;BME280;7533;51.278;12.588;2023-01-23T00:58:24;101749.94;;;23.17;57.97
14882;BME280;7533;51.278;12.588;2023-01-23T01:03:29;101756.41;;;23.14;58.17
14882;BME280;7533;51.278;12.588;2023-01-23T01:08:32;101752.75;;;23.15;58.15
14882;BME280;7533;51.278;12.588;2023-01-23T01:13:35;101770.63;;;23.18;58.16
14882;BME280;7533;51.278;12.588;2023-01-23T01:18:39;101777.78;;;23.19;58.05
14882;BME280;7533;51.278;12.588;2023-01-23T01:23:42;101775.72;;;23.24;57.94
14882;BME280;7533;51.278;12.588;2023-01-23T01:28:46;101775.75;;;23.22;58.02
14882;BME280;7533;51.278;12.588;2023-01-23T01:33:51;101772.28;;;23.20;58.22
14882;BME280;7533;51.278;12.588;2023-01-23T01:38:53;101771.94;;;23.27;58.08
14882;BME280;7533;51.278;12.588;2023-01-23T01:43:58;101778.22;;;23.27;58.09
14882;BME280;7533;51.278;12.588;2023-01-23T01:49:09;101790.31;;;23.20;58.23
14882;BME280;7533;51.278;12.588;2023-01-23T01:54:17;101788.88;;;23.30;58.00
14882;BME280;7533;51.278;12.588;2023-01-23T01:59:25;101804.28;;;23.28;57.98
14882;BME280;7533;51.278;12.588;2023-01-23T02:04:31;101812.16;;;23.33;58.05
14882;BME280;7533;51.278;12.588;2023-01-23T02:09:34;101806.97;;;23.28;58.06
14882;BME280;7533;51.278;12.588;2023-01-23T02:14:37;101815.97;;;23.29;58.00
14882;BME280;7533;51.278;12.588;2023-01-23T02:19:46;101813.25;;;23.29;58.06
14882;BME280;7533;51.278;12.588;2023-01-23T02:24:59;101825.91;;;23.28;58.22
14882;BME280;7533;51.278;12.588;2023-01-23T02:30:08;101832.34;;;23.26;58.28
14882;BME280;7533;51.278;12.588;2023-01-23T02:35:17;101825.44;;;23.20;58.28
14882;BME280;7533;51.278;12.588;2023-01-23T02:40:30;101836.38;;;23.17;58.31
14882;BME280;7533;51.278;12.588;2023-01-23T02:45:35;101832.59;;;23.21;58.27
14882;BME280;7533;51.278;12.588;2023-01-23T02:50:39;101832.81;;;23.16;58.45
14882;BME280;7533;51.278;12.588;2023-01-23T02:55:47;101835.59;;;23.15;58.29
14882;BME280;7533;51.278;12.588;2023-01-23T03:00:54;101836.38;;;23.17;58.44
14882;BME280;7533;51.278;12.588;2023-01-23T03:05:57;101837.03;;;23.22;58.19
14882;BME280;7533;51.278;12.588;2023-01-23T03:11:04;101827.19;;;23.21;58.19
14882;BME280;7533;51.278;12.588;2023-01-23T03:16:08;101836.06;;;23.23;57.98
14882;BME280;7533;51.278;12.588;2023-01-23T03:21:11;101842.66;;;23.17;57.95
14882;BME280;7533;51.278;12.588;2023-01-23T03:26:14;101842.13;;;23.11;58.18
14882;BME280;7533;51.278;12.588;2023-01-23T03:31:21;101849.09;;;22.98;58.41
14882;BME280;7533;51.278;12.588;2023-01-23T03:36:24;101848.84;;;22.85;59.00
14882;BME280;7533;51.278;12.588;2023-01-23T03:41:27;101845.28;;;22.65;59.28
14882;BME280;7533;51.278;12.588;2023-01-23T03:46:37;101848.50;;;22.55;59.73
14882;BME280;7533;51.278;12.588;2023-01-23T03:51:40;101850.16;;;22.40;60.26
14882;BME280;7533;51.278;12.588;2023-01-23T03:56:43;101858.69;;;22.31;60.56
14882;BME280;7533;51.278;12.588;2023-01-23T04:02:05;101858.53;;;22.15;60.87
14882;BME280;7533;51.278;12.588;2023-01-23T04:07:08;101854.19;;;22.12;61.18
14882;BME280;7533;51.278;12.588;2023-01-23T04:12:13;101859.16;;;22.01;61.51
14882;BME280;7533;51.278;12.588;2023-01-23T04:17:22;101850.19;;;22.01;61.55
14882;BME280;7533;51.278;12.588;2023-01-23T04:22:25;101848.00;;;21.90;61.78
14882;BME280;7533;51.278;12.588;2023-01-23T04:27:28;101845.38;;;22.07;60.55
14882;BME280;7533;51.278;12.588;2023-01-23T04:32:33;101856.19;;;22.07;59.81
14882;BME280;7533;51.278;12.588;2023-01-23T04:37:36;101860.81;;;21.85;59.96
14882;BME280;7533;51.278;12.588;2023-01-23T04:42:40;101857.06;;;21.69;60.27
14882;BME280;7533;51.278;12.588;2023-01-23T04:48:07;101859.59;;;21.72;59.95
14882;BME280;7533;51.278;12.588;2023-01-23T04:53:11;101877.84;;;21.67;59.75
14882;BME280;7533;51.278;12.588;2023-01-23T04:58:17;101898.09;;;21.55;60.00
14882;BME280;7533;51.278;12.588;2023-01-23T05:03:22;101889.56;;;21.45;60.23
14882;BME280;7533;51.278;12.588;2023-01-23T05:08:25;101905.50;;;21.29;60.58
14882;BME280;7533;51.278;12.588;2023-01-23T05:13:42;101912.06;;;21.22;60.64
14882;BME280;7533;51.278;12.588;2023-01-23T05:18:47;101901.78;;;21.10;60.99
14882;BME280;7533;51.278;12.588;2023-01-23T05:23:50;101920.03;;;21.03;61.32
14882;BME280;7533;51.278;12.588;2023-01-23T05:28:55;101921.34;;;20.93;61.37
14882;BME280;7533;51.278;12.588;2023-01-23T05:34:00;101926.06;;;20.88;61.57
14882;BME280;7533;51.278;12.588;2023-01-23T05:39:04;101917.41;;;20.80;61.72
14882;BME280;7533;51.278;12.588;2023-01-23T05:44:07;101924.75;;;20.76;61.78
14882;BME280;7533;51.278;12.588;2023-01-23T05:49:22;101925.78;;;20.72;62.11
14882;BME280;7533;51.278;12.588;2023-01-23T05:54:25;101919.91;;;20.63;62.24
14882;BME280;7533;51.278;12.588;2023-01-23T05:59:29;101933.53;;;20.58;62.35
14882;BME280;7533;51.278;12.588;2023-01-23T06:05:06;101930.09;;;20.54;62.55
14882;BME280;7533;51.278;12.588;2023-01-23T06:10:29;101930.28;;;20.50;62.57
14882;BME280;7533;51.278;12.588;2023-01-23T06:15:32;101945.66;;;20.46;62.80
14882;BME280;7533;51.278;12.588;2023-01-23T06:20:40;101947.56;;;20.43;62.69
14882;BME280;7533;51.278;12.588;2023-01-23T06:25:44;101951.38;;;20.37;63.01
14882;BME280;7533;51.278;12.588;2023-01-23T06:30:47;101956.75;;;20.37;62.92
14882;BME280;7533;51.278;12.588;2023-01-23T06:36:02;101963.09;;;20.34;63.05
14882;BME280;7533;51.278;12.588;2023-01-23T06:41:07;101961.41;;;20.32;62.96
14882;BME280;7533;51.278;12.588;2023-01-23T06:46:13;101965.16;;;20.28;63.22
14882;BME280;7533;51.278;12.588;2023-01-23T06:51:17;101972.34;;;20.27;63.08
14882;BME280;7533;51.278;12.588;2023-01-23T06:56:21;101984.06;;;20.25;63.34
14882;BME280;7533;51.278;12.588;2023-01-23T07:01:25;101988.75;;;20.20;63.36
14882;BME280;7533;51.278;12.588;2023-01-23T07:06:48;102002.25;;;20.18;63.46
14882;BME280;7533;51.278;12.588;2023-01-23T07:11:53;102006.03;;;20.13;63.52
14882;BME280;7533;51.278;12.588;2023-01-23T07:16:56;102021.28;;;20.12;63.64
14882;BME280;7533;51.278;12.588;2023-01-23T07:22:00;102021.41;;;20.09;63.65
14882;BME280;7533;51.278;12.588;2023-01-23T07:27:04;102020.66;;;20.05;63.70
14882;BME280;7533;51.278;12.588;2023-01-23T07:32:06;102038.66;;;20.03;63.76
14882;BME280;7533;51.278;12.588;2023-01-23T07:37:13;102037.38;;;20.14;62.92
14882;BME280;7533;51.278;12.588;2023-01-23T07:42:16;102049.22;;;20.08;61.99
14882;BME280;7533;51.278;12.588;2023-01-23T07:47:19;102047.25;;;19.34;53.58
14882;BME280;7533;51.278;12.588;2023-01-23T07:52:23;102075.78;;;15.66;53.37
14882;BME280;7533;51.278;12.588;2023-01-23T07:57:26;102082.34;;;15.40;51.11
14882;BME280;7533;51.278;12.588;2023-01-23T08:02:28;102075.50;;;17.91;50.80
14882;BME280;7533;51.278;12.588;2023-01-23T08:07:32;102074.47;;;18.61;50.27
14882;BME280;7533;51.278;12.588;2023-01-23T08:12:35;102077.03;;;19.26;50.36
14882;BME280;7533;51.278;12.588;2023-01-23T08:17:38;102073.28;;;19.60;51.21
14882;BME280;7533;51.278;12.588;2023-01-23T08:22:42;102085.06;;;19.82;51.98
14882;BME280;7533;51.278;12.588;2023-01-23T08:27:45;102090.84;;;19.96;52.25
14882;BME280;7533;51.278;12.588;2023-01-23T08:32:48;102086.09;;;20.04;52.66
14882;BME280;7533;51.278;12.588;2023-01-23T08:37:52;102094.81;;;20.11;53.20
14882;BME280;7533;51.278;12.588;2023-01-23T08:42:55;102095.47;;;20.18;53.66
14882;BME280;7533;51.278;12.588;2023-01-23T08:47:58;102099.88;;;20.20;54.33
14882;BME280;7533;51.278;12.588;2023-01-23T08:53:02;102100.69;;;20.22;55.12
14882;BME280;7533;51.278;12.588;2023-01-23T08:58:05;102106.00;;;20.24;55.83
14882;BME280;7533;51.278;12.588;2023-01-23T09:03:09;102103.31;;;20.24;56.25
14882;BME280;7533;51.278;12.588;2023-01-23T09:08:13;102106.88;;;20.24;56.70
14882;BME280;7533;51.278;12.588;2023-01-23T09:13:16;102110.50;;;20.23;57.19
14882;BME280;7533;51.278;12.588;2023-01-23T09:18:20;102120.47;;;20.20;57.62
14882;BME280;7533;51.278;12.588;2023-01-23T09:23:26;102115.22;;;20.17;58.02
14882;BME280;7533;51.278;12.588;2023-01-23T09:28:29;102126.06;;;20.15;58.43
14882;BME280;7533;51.278;12.588;2023-01-23T09:33:32;102125.13;;;20.16;58.82
14882;BME280;7533;51.278;12.588;2023-01-23T09:38:36;102122.50;;;20.15;58.88
14882;BME280;7533;51.278;12.588;2023-01-23T09:43:43;102124.19;;;20.17;59.28
14882;BME280;7533;51.278;12.588;2023-01-23T09:48:53;102122.50;;;20.15;59.79
14882;BME280;7533;51.278;12.588;2023-01-23T09:54:12;102117.03;;;20.16;59.57
14882;BME280;7533;51.278;12.588;2023-01-23T09:59:24;102120.88;;;20.09;59.45
14882;BME280;7533;51.278;12.588;2023-01-23T10:04:30;102125.34;;;20.08;59.69
14882;BME280;7533;51.278;12.588;2023-01-23T10:09:46;102114.72;;;20.05;59.87
14882;BME280;7533;51.278;12.588;2023-01-23T10:15:05;102101.28;;;20.05;59.79
14882;BME280;7533;51.278;12.588;2023-01-23T10:20:24;102093.22;;;20.05;59.79
14882;BME280;7533;51.278;12.588;2023-01-23T10:25:35;102090.41;;;20.08;60.09
14882;BME280;7533;51.278;12.588;2023-01-23T10:30:45;102093.06;;;20.10;59.98
14882;BME280;7533;51.278;12.588;2023-01-23T10:35:52;102090.31;;;20.12;60.08
14882;BME280;7533;51.278;12.588;2023-01-23T10:40:59;102088.56;;;20.11;60.14
14882;BME280;7533;51.278;12.588;2023-01-23T10:46:28;102088.44;;;20.14;60.12
14882;BME280;7533;51.278;12.588;2023-01-23T10:51:43;102092.00;;;20.14;59.88
14882;BME280;7533;51.278;12.588;2023-01-23T10:56:52;102091.19;;;20.12;60.19
14882;BME280;7533;51.278;12.588;2023-01-23T11:01:59;102084.94;;;20.12;60.37
14882;BME280;7533;51.278;12.588;2023-01-23T11:07:05;102087.53;;;20.15;60.32
14882;BME280;7533;51.278;12.588;2023-01-23T11:12:15;102099.09;;;20.17;60.52
14882;BME280;7533;51.278;12.588;2023-01-23T11:17:21;102100.97;;;20.15;60.54
14882;BME280;7533;51.278;12.588;2023-01-23T11:22:29;102096.47;;;20.15;60.55
14882;BME280;7533;51.278;12.588;2023-01-23T11:27:34;102098.28;;;20.15;60.60
14882;BME280;7533;51.278;12.588;2023-01-23T11:32:42;102104.53;;;20.15;60.63
14882;BME280;7533;51.278;12.588;2023-01-23T11:37:48;102103.66;;;20.15;60.81
14882;BME280;7533;51.278;12.588;2023-01-23T11:42:53;102100.03;;;20.16;60.80
14882;BME280;7533;51.278;12.588;2023-01-23T11:48:06;102106.34;;;20.15;60.88
14882;BME280;7533;51.278;12.588;2023-01-23T11:53:19;102097.44;;;20.13;60.90
14882;BME280;7533;51.278;12.588;2023-01-23T12:04:27;102079.63;;;20.10;60.67
14882;BME280;7533;51.278;12.588;2023-01-23T12:09:43;102078.69;;;20.11;61.11
14882;BME280;7533;51.278;12.588;2023-01-23T12:14:56;102080.50;;;20.11;61.06
14882;BME280;7533;51.278;12.588;2023-01-23T12:20:30;102069.81;;;20.09;60.94
14882;BME280;7533;51.278;12.588;2023-01-23T12:25:38;102076.97;;;20.08;61.27
14882;BME280;7533;51.278;12.588;2023-01-23T12:30:50;102069.84;;;20.07;61.17
14882;BME280;7533;51.278;12.588;2023-01-23T12:36:14;102076.81;;;20.13;60.90
14882;BME280;7533;51.278;12.588;2023-01-23T12:41:28;102080.50;;;20.11;61.21
14882;BME280;7533;51.278;12.588;2023-01-23T12:46:40;102082.34;;;20.08;61.30
14882;BME280;7533;51.278;12.588;2023-01-23T12:51:50;102085.91;;;17.29;49.51
14882;BME280;7533;51.278;12.588;2023-01-23T12:56:56;102096.91;;;15.78;49.98
14882;BME280;7533;51.278;12.588;2023-01-23T13:02:07;102096.50;;;16.93;50.91
14882;BME280;7533;51.278;12.588;2023-01-23T13:07:32;102082.06;;;18.45;50.10
14882;BME280;7533;51.278;12.588;2023-01-23T13:12:38;102078.63;;;19.03;50.39
14882;BME280;7533;51.278;12.588;2023-01-23T13:17:45;102082.13;;;19.34;50.69
14882;BME280;7533;51.278;12.588;2023-01-23T13:22:50;102078.78;;;19.55;51.07
14882;BME280;7533;51.278;12.588;2023-01-23T13:27:54;102081.81;;;19.72;51.73
14882;BME280;7533;51.278;12.588;2023-01-23T13:33:00;102091.25;;;19.84;52.15
14882;BME280;7533;51.278;12.588;2023-01-23T13:38:33;102074.69;;;19.98;52.47
14882;BME280;7533;51.278;12.588;2023-01-23T13:43:41;102070.78;;;20.06;53.04
14882;BME280;7533;51.278;12.588;2023-01-23T13:48:51;102076.72;;;20.16;53.09
14882;BME280;7533;51.278;12.588;2023-01-23T13:54:30;102077.31;;;20.24;53.92
14882;BME280;7533;51.278;12.588;2023-01-23T14:00:10;102084.19;;;20.33;54.07
14882;BME280;7533;51.278;12.588;2023-01-23T14:05:31;102086.72;;;20.38;54.28
14882;BME280;7533;51.278;12.588;2023-01-23T14:10:51;102074.78;;;20.45;55.03
14882;BME280;7533;51.278;12.588;2023-01-23T14:16:11;102074.75;;;20.46;55.25
14882;BME280;7533;51.278;12.588;2023-01-23T14:21:38;102078.22;;;20.50;55.91
14882;BME280;7533;51.278;12.588;2023-01-23T14:26:50;102077.38;;;20.48;56.78
14882;BME280;7533;51.278;12.588;2023-01-23T14:31:53;102079.25;;;20.46;57.14
14882;BME280;7533;51.278;12.588;2023-01-23T14:37:00;102084.63;;;20.46;57.44
14882;BME280;7533;51.278;12.588;2023-01-23T14:42:06;102082.84;;;20.45;57.67
14882;BME280;7533;51.278;12.588;2023-01-23T14:47:25;102084.63;;;20.46;58.09
14882;BME280;7533;51.278;12.588;2023-01-23T14:52:35;102082.84;;;20.45;58.25
14882;BME280;7533;51.278;12.588;2023-01-23T14:57:39;102082.84;;;20.45;58.28
14882;BME280;7533;51.278;12.588;2023-01-23T15:02:42;102092.72;;;20.46;58.33
14882;BME280;7533;51.278;12.588;2023-01-23T15:07:50;102102.63;;;20.44;58.37
14882;BME280;7533;51.278;12.588;2023-01-23T15:12:58;102108.88;;;20.44;58.74
14882;BME280;7533;51.278;12.588;2023-01-23T15:18:05;102116.94;;;20.44;58.97
14882;BME280;7533;51.278;12.588;2023-01-23T15:23:23;102123.16;;;20.46;59.30
14882;BME280;7533;51.278;12.588;2023-01-23T15:28:31;102122.22;;;20.49;59.02
14882;BME280;7533;51.278;12.588;2023-01-23T15:33:40;102116.75;;;20.50;59.13
14882;BME280;7533;51.278;12.588;2023-01-23T15:38:45;102123.16;;;20.46;59.32
14882;BME280;7533;51.278;12.588;2023-01-23T15:43:49;102118.56;;;20.50;59.12
14882;BME280;7533;51.278;12.588;2023-01-23T15:48:52;102118.44;;;20.53;59.32
14882;BME280;7533;51.278;12.588;2023-01-23T15:53:55;102123.88;;;20.51;59.26
14882;BME280;7533;51.278;12.588;2023-01-23T15:58:59;102116.63;;;20.53;59.17
14882;BME280;7533;51.278;12.588;2023-01-23T16:04:03;102127.38;;;20.53;59.59
14882;BME280;7533;51.278;12.588;2023-01-23T16:09:10;102130.06;;;20.55;59.51
14882;BME280;7533;51.278;12.588;2023-01-23T16:14:17;102137.13;;;20.57;59.65
14882;BME280;7533;51.278;12.588;2023-01-23T16:19:20;102138.88;;;20.58;59.76
14882;BME280;7533;51.278;12.588;2023-01-23T16:24:23;102141.56;;;20.58;59.65
14882;BME280;7533;51.278;12.588;2023-01-23T16:29:29;102147.81;;;20.59;59.93
14882;BME280;7533;51.278;12.588;2023-01-23T16:34:33;102150.50;;;20.59;59.90
14882;BME280;7533;51.278;12.588;2023-01-23T16:39:36;102152.94;;;20.67;59.98
14882;BME280;7533;51.278;12.588;2023-01-23T16:44:40;102156.94;;;20.80;59.64
14882;BME280;7533;51.278;12.588;2023-01-23T16:49:43;102159.16;;;20.92;59.14
14882;BME280;7533;51.278;12.588;2023-01-23T16:54:55;102164.97;;;21.05;59.14
14882;BME280;7533;51.278;12.588;2023-01-23T17:00:00;102162.78;;;21.14;58.68
14882;BME280;7533;51.278;12.588;2023-01-23T17:05:04;102164.28;;;21.23;58.84
14882;BME280;7533;51.278;12.588;2023-01-23T17:10:12;102168.09;;;21.41;59.12
14882;BME280;7533;51.278;12.588;2023-01-23T17:15:20;102171.34;;;21.49;59.95
14882;BME280;7533;51.278;12.588;2023-01-23T17:20:24;102166.72;;;21.53;60.43
14882;BME280;7533;51.278;12.588;2023-01-23T17:25:29;102171.94;;;21.57;60.24
14882;BME280;7533;51.278;12.588;2023-01-23T17:30:34;102172.13;;;21.53;60.25
14882;BME280;7533;51.278;12.588;2023-01-23T17:35:36;102164.09;;;21.51;60.01
14882;BME280;7533;51.278;12.588;2023-01-23T17:40:39;102161.34;;;21.53;59.81
14882;BME280;7533;51.278;12.588;2023-01-23T17:45:46;102164.81;;;21.56;59.64
14882;BME280;7533;51.278;12.588;2023-01-23T17:50:50;102163.94;;;21.56;59.60
14882;BME280;7533;51.278;12.588;2023-01-23T17:55:52;102161.97;;;21.59;59.28
14882;BME280;7533;51.278;12.588;2023-01-23T18:00:57;102177.34;;;21.57;59.32
14882;BME280;7533;51.278;12.588;2023-01-23T18:06:00;102185.34;;;21.59;59.14
14882;BME280;7533;51.278;12.588;2023-01-23T18:11:03;102174.63;;;21.57;59.06
14882;BME280;7533;51.278;12.588;2023-01-23T18:16:12;102172.00;;;21.56;58.99
14882;BME280;7533;51.278;12.588;2023-01-23T18:21:16;102170.88;;;21.61;58.94
14882;BME280;7533;51.278;12.588;2023-01-23T18:26:34;102171.00;;;21.58;58.92
14882;BME280;7533;51.278;12.588;2023-01-23T18:31:48;102169.69;;;21.69;58.70
14882;BME280;7533;51.278;12.588;2023-01-23T18:37:03;102173.00;;;21.75;58.67
14882;BME280;7533;51.278;12.588;2023-01-23T18:42:16;102174.66;;;21.79;58.59
14882;BME280;7533;51.278;12.588;2023-01-23T18:47:24;102179.91;;;21.82;58.37
14882;BME280;7533;51.278;12.588;2023-01-23T18:52:38;102181.53;;;21.86;58.27
14882;BME280;7533;51.278;12.588;2023-01-23T18:57:52;102189.69;;;21.85;58.22
14882;BME280;7533;51.278;12.588;2023-01-23T19:03:09;102191.38;;;21.87;58.33
14882;BME280;7533;51.278;12.588;2023-01-23T19:08:27;102197.53;;;21.91;58.07
14882;BME280;7533;51.278;12.588;2023-01-23T19:13:36;102200.09;;;21.94;58.00
14882;BME280;7533;51.278;12.588;2023-01-23T19:18:47;102205.94;;;21.83;58.19
14882;BME280;7533;51.278;12.588;2023-01-23T19:23:55;102202.94;;;21.91;58.11
14882;BME280;7533;51.278;12.588;2023-01-23T19:29:00;102212.75;;;21.92;57.90
14882;BME280;7533;51.278;12.588;2023-01-23T19:34:22;102200.47;;;21.85;58.21
14882;BME280;7533;51.278;12.588;2023-01-23T19:39:24;102203.81;;;21.91;58.16
14882;BME280;7533;51.278;12.588;2023-01-23T19:44:27;102205.69;;;21.89;57.99
14882;BME280;7533;51.278;12.588;2023-01-23T19:49:32;102203.09;;;21.86;58.02
14882;BME280;7533;51.278;12.588;2023-01-23T19:54:35;102199.47;;;21.87;58.09
14882;BME280;7533;51.278;12.588;2023-01-23T19:59:38;102201.34;;;21.85;58.10
14882;BME280;7533;51.278;12.588;2023-01-23T20:04:42;102202.22;;;21.86;58.19
14882;BME280;7533;51.278;12.588;2023-01-23T20:09:45;102199.72;;;21.81;58.31
14882;BME280;7533;51.278;12.588;2023-01-23T20:14:48;102200.91;;;21.96;57.95
14882;BME280;7533;51.278;12.588;2023-01-23T20:19:52;102199.97;;;21.97;57.92
14882;BME280;7533;51.278;12.588;2023-01-23T20:24:55;102193.97;;;21.90;58.13
14882;BME280;7533;51.278;12.588;2023-01-23T20:29:57;102197.38;;;21.94;57.88
14882;BME280;7533;51.278;12.588;2023-01-23T20:35:02;102206.94;;;22.03;57.96
14882;BME280;7533;51.278;12.588;2023-01-23T20:40:05;102206.94;;;21.81;58.45
14882;BME280;7533;51.278;12.588;2023-01-23T20:45:10;102206.94;;;22.03;57.91
14882;BME280;7533;51.278;12.588;2023-01-23T20:50:14;102209.00;;;21.96;57.69
14882;BME280;7533;51.278;12.588;2023-01-23T20:55:17;102210.75;;;21.97;57.44
14882;BME280;7533;51.278;12.588;2023-01-23T21:00:21;102212.50;;;21.98;57.29
14882;BME280;7533;51.278;12.588;2023-01-23T21:05:25;102212.69;;;21.93;57.16
14882;BME280;7533;51.278;12.588;2023-01-23T21:10:28;102215.97;;;22.02;56.77
14882;BME280;7533;51.278;12.588;2023-01-23T21:15:31;102226.50;;;22.08;56.53
14882;BME280;7533;51.278;12.588;2023-01-23T21:20:35;102216.66;;;22.07;56.25
14882;BME280;7533;51.278;12.588;2023-01-23T21:25:40;102226.50;;;21.86;57.58
14882;BME280;7533;51.278;12.588;2023-01-23T21:30:43;102231.63;;;21.92;57.60
14882;BME280;7533;51.278;12.588;2023-01-23T21:35:48;102235.97;;;21.96;57.48
14882;BME280;7533;51.278;12.588;2023-01-23T21:40:52;102232.41;;;21.96;57.66
14882;BME280;7533;51.278;12.588;2023-01-23T21:45:55;102233.47;;;21.91;57.57
14882;BME280;7533;51.278;12.588;2023-01-23T21:51:08;102232.94;;;21.82;57.95
14882;BME280;7533;51.278;12.588;2023-01-23T21:56:13;102227.69;;;21.79;57.86
14882;BME280;7533;51.278;12.588;2023-01-23T22:01:18;102217.19;;;21.71;58.08
14882;BME280;7533;51.278;12.588;2023-01-23T22:06:37;102217.00;;;21.76;58.14
14882;BME280;7533;51.278;12.588;2023-01-23T22:11:40;102225.88;;;21.79;57.88
14882;BME280;7533;51.278;12.588;2023-01-23T22:16:43;102211.44;;;21.80;57.94
14882;BME280;7533;51.278;12.588;2023-01-23T22:21:51;102222.94;;;21.85;57.79
14882;BME280;7533;51.278;12.588;2023-01-23T22:26:54;102218.16;;;21.92;57.77
14882;BME280;7533;51.278;12.588;2023-01-23T22:31:57;102224.13;;;22.00;57.63
14882;BME280;7533;51.278;12.588;2023-01-23T22:37:02;102215.22;;;21.98;57.58
14882;BME280;7533;51.278;12.588;2023-01-23T22:42:04;102220.31;;;22.06;57.43
14882;BME280;7533;51.278;12.588;2023-01-23T22:47:07;102213.53;;;21.96;57.78
14882;BME280;7533;51.278;12.588;2023-01-23T22:52:11;102217.84;;;22.00;57.79
14882;BME280;7533;51.278;12.588;2023-01-23T22:57:15;102218.78;;;21.99;57.82
14882;BME280;7533;51.278;12.588;2023-01-23T23:02:18;102212.50;;;21.98;57.96
14882;BME280;7533;51.278;12.588;2023-01-23T23:07:22;102215.47;;;21.92;58.05
14882;BME280;7533;51.278;12.588;2023-01-23T23:12:26;102211.78;;;21.95;58.09
14882;BME280;7533;51.278;12.588;2023-01-23T23:17:29;102208.25;;;21.92;58.16
14882;BME280;7533;51.278;12.588;2023-01-23T23:22:33;102211.81;;;21.93;58.08
14882;BME280;7533;51.278;12.588;2023-01-23T23:27:36;102215.34;;;21.95;58.09
14882;BME280;7533;51.278;12.588;2023-01-23T23:32:39;102218.03;;;21.95;58.23
14882;BME280;7533;51.278;12.588;2023-01-23T23:37:43;102217.22;;;21.93;58.12
14882;BME280;7533;51.278;12.588;2023-01-23T23:42:46;102222.84;;;21.87;58.45
14882;BME280;7533;51.278;12.588;2023-01-23T23:47:49;102221.66;;;21.94;58.32
14882;BME280;7533;51.278;12.588;2023-01-23T23:52:53;102221.72;;;21.92;58.29
14882;BME280;7533;51.278;12.588;2023-01-23T23:57:57;102220.16;;;21.87;58.39
